sensor_id;sensor_type;location;lat;lon;timestamp;pressure;altitude;pressure_sealevel;temperature;humidity
46583;BME280;32309;48.858;8.252;2022-08-19T00:00:37;99888.13;;;21.47;72.92
46583;BME280;32309;48.858;8.252;2022-08-19T00:02:41;99894.38;;;21.45;73.04
46583;BME280;32309;48.858;8.252;2022-08-19T00:04:42;99898.84;;;21.45;73.34
46583;BME280;32309;48.858;8.252;2022-08-19T00:06:43;99894.56;;;21.44;73.43
46583;BME280;32309;48.858;8.252;2022-08-19T00:08:43;99894.91;;;21.41;73.91
46583;BME280;32309;48.858;8.252;2022-08-19T00:10:44;99882.53;;;21.41;73.79
46583;BME280;32309;48.858;8.252;2022-08-19T00:12:45;99884.66;;;21.38;74.58
46583;BME280;32309;48.858;8.252;2022-08-19T00:14:48;99894.22;;;21.39;74.21
46583;BME280;32309;48.858;8.252;2022-08-19T00:16:54;99886.16;;;21.32;73.64
46583;BME280;32309;48.858;8.252;2022-08-19T00:18:57;99893.91;;;21.34;74.74
46583;BME280;32309;48.858;8.252;2022-08-19T00:20:57;99886.84;;;21.34;74.57
46583;BME280;32309;48.858;8.252;2022-08-19T00:22:59;99882.72;;;21.32;75.21
46583;BME280;32309;48.858;8.252;2022-08-19T00:24:59;99883.72;;;21.31;72.44
46583;BME280;32309;48.858;8.252;2022-08-19T00:27:00;99884.53;;;21.31;75.41
46583;BME280;32309;48.858;8.252;2022-08-19T00:29:02;99887.50;;;21.28;75.63
46583;BME280;32309;48.858;8.252;2022-08-19T00:31:04;99890.13;;;21.28;75.50
46583;BME280;32309;48.858;8.252;2022-08-19T00:33:04;99897.38;;;21.26;72.77
46583;BME280;32309;48.858;8.252;2022-08-19T00:35:04;99898.38;;;21.25;75.32
46583;BME280;32309;48.858;8.252;2022-08-19T00:37:05;99895.75;;;21.25;75.19
46583;BME280;32309;48.858;8.252;2022-08-19T00:39:05;99899.53;;;21.22;74.43
46583;BME280;32309;48.858;8.252;2022-08-19T00:41:07;99894.28;;;21.22;72.21
46583;BME280;32309;48.858;8.252;2022-08-19T00:43:09;99893.13;;;21.25;75.06
46583;BME280;32309;48.858;8.252;2022-08-19T00:45:19;99888.50;;;21.27;75.63
46583;BME280;32309;48.858;8.252;2022-08-19T00:47:31;99887.69;;;21.26;75.14
46583;BME280;32309;48.858;8.252;2022-08-19T00:49:55;99874.50;;;21.26;74.57
46583;BME280;32309;48.858;8.252;2022-08-19T01:01:05;99873.34;;;21.29;75.24
46583;BME280;32309;48.858;8.252;2022-08-19T01:06:30;99885.69;;;21.28;75.25
46583;BME280;32309;48.858;8.252;2022-08-19T01:08:43;99886.84;;;21.26;75.39
46583;BME280;32309;48.858;8.252;2022-08-19T01:10:50;99893.94;;;21.25;75.80
46583;BME280;32309;48.858;8.252;2022-08-19T01:16:52;99891.63;;;21.22;75.79
46583;BME280;32309;48.858;8.252;2022-08-19T01:18:59;99886.38;;;21.22;75.93
46583;BME280;32309;48.858;8.252;2022-08-19T01:21:02;99882.88;;;21.22;75.75
46583;BME280;32309;48.858;8.252;2022-08-19T01:23:08;99875.66;;;21.24;75.44
46583;BME280;32309;48.858;8.252;2022-08-19T01:25:09;99877.44;;;21.23;75.48
46583;BME280;32309;48.858;8.252;2022-08-19T01:27:10;99882.72;;;21.23;75.64
46583;BME280;32309;48.858;8.252;2022-08-19T01:29:11;99881.72;;;21.24;75.21
46583;BME280;32309;48.858;8.252;2022-08-19T01:31:21;99886.03;;;21.25;75.21
46583;BME280;32309;48.858;8.252;2022-08-19T01:33:24;99875.47;;;21.25;75.17
46583;BME280;32309;48.858;8.252;2022-08-19T01:35:44;99880.75;;;21.25;75.31
46583;BME280;32309;48.858;8.252;2022-08-19T01:38:43;99887.69;;;21.26;74.87
46583;BME280;32309;48.858;8.252;2022-08-19T01:41:30;99887.50;;;21.28;75.13
46583;BME280;32309;48.858;8.252;2022-08-19T01:43:32;99883.03;;;21.28;75.34
46583;BME280;32309;48.858;8.252;2022-08-19T01:45:38;99875.31;;;21.27;74.73
46583;BME280;32309;48.858;8.252;2022-08-19T01:47:42;99876.97;;;21.28;74.96
46583;BME280;32309;48.858;8.252;2022-08-19T01:49:54;99876.16;;;21.27;74.96
46583;BME280;32309;48.858;8.252;2022-08-19T02:07:36;99876.47;;;21.16;76.38
46583;BME280;32309;48.858;8.252;2022-08-19T02:18:00;99879.63;;;21.11;74.33
46583;BME280;32309;48.858;8.252;2022-08-19T02:20:20;99883.88;;;21.13;76.31
46583;BME280;32309;48.858;8.252;2022-08-19T02:22:30;99880.63;;;21.10;77.00
46583;BME280;32309;48.858;8.252;2022-08-19T02:25:22;99878.16;;;21.09;76.63
46583;BME280;32309;48.858;8.252;2022-08-19T02:28:02;99876.34;;;21.09;76.65
46583;BME280;32309;48.858;8.252;2022-08-19T02:30:05;99873.19;;;21.06;76.95
46583;BME280;32309;48.858;8.252;2022-08-19T02:32:10;99870.38;;;21.07;76.69
46583;BME280;32309;48.858;8.252;2022-08-19T02:34:25;99871.41;;;21.06;75.95
46583;BME280;32309;48.858;8.252;2022-08-19T02:43:22;99876.81;;;21.05;76.48
46583;BME280;32309;48.858;8.252;2022-08-19T02:45:26;99873.53;;;21.03;76.93
46583;BME280;32309;48.858;8.252;2022-08-19T02:47:37;99870.06;;;21.02;77.47
46583;BME280;32309;48.858;8.252;2022-08-19T02:49:37;99866.63;;;21.02;77.37
46583;BME280;32309;48.858;8.252;2022-08-19T02:51:39;99866.63;;;21.02;77.41
46583;BME280;32309;48.858;8.252;2022-08-19T03:09:23;99887.06;;;21.00;78.28
46583;BME280;32309;48.858;8.252;2022-08-19T03:26:44;99895.94;;;20.99;78.30
46583;BME280;32309;48.858;8.252;2022-08-19T03:28:51;99891.81;;;20.96;78.61
46583;BME280;32309;48.858;8.252;2022-08-19T03:30:56;99899.56;;;20.98;77.99
46583;BME280;32309;48.858;8.252;2022-08-19T03:33:34;99893.63;;;20.95;78.81
46583;BME280;32309;48.858;8.252;2022-08-19T03:44:29;99905.97;;;20.95;78.89
46583;BME280;32309;48.858;8.252;2022-08-19T03:46:31;99912.06;;;20.95;77.55
46583;BME280;32309;48.858;8.252;2022-08-19T03:48:53;99905.16;;;20.94;78.31
46583;BME280;32309;48.858;8.252;2022-08-19T03:54:24;99902.03;;;20.91;76.84
46583;BME280;32309;48.858;8.252;2022-08-19T04:02:26;99894.59;;;20.86;77.24
46583;BME280;32309;48.858;8.252;2022-08-19T04:04:27;99904.34;;;20.86;78.69
46583;BME280;32309;48.858;8.252;2022-08-19T04:06:32;99899.41;;;20.83;78.75
46583;BME280;32309;48.858;8.252;2022-08-19T04:08:32;99896.09;;;20.81;79.05
46583;BME280;32309;48.858;8.252;2022-08-19T04:10:36;99906.78;;;20.79;77.98
46583;BME280;32309;48.858;8.252;2022-08-19T04:12:37;99907.63;;;20.80;78.83
46583;BME280;32309;48.858;8.252;2022-08-19T04:14:37;99913.88;;;20.78;79.10
46583;BME280;32309;48.858;8.252;2022-08-19T04:16:37;99911.25;;;20.78;79.03
46583;BME280;32309;48.858;8.252;2022-08-19T04:18:38;99915.69;;;20.78;78.24
46583;BME280;32309;48.858;8.252;2022-08-19T04:20:44;99917.81;;;20.74;79.54
46583;BME280;32309;48.858;8.252;2022-08-19T04:22:46;99915.19;;;20.74;79.35
46583;BME280;32309;48.858;8.252;2022-08-19T04:24:46;99916.19;;;20.73;79.12
46583;BME280;32309;48.858;8.252;2022-08-19T04:26:47;99913.56;;;20.73;78.68
46583;BME280;32309;48.858;8.252;2022-08-19T04:28:48;99909.91;;;20.74;79.02
46583;BME280;32309;48.858;8.252;2022-08-19T04:30:49;99911.72;;;20.74;79.19
46583;BME280;32309;48.858;8.252;2022-08-19T04:32:50;99908.28;;;20.73;79.30
46583;BME280;32309;48.858;8.252;2022-08-19T04:34:50;99897.75;;;20.73;78.45
46583;BME280;32309;48.858;8.252;2022-08-19T04:36:51;99900.38;;;20.73;79.03
46583;BME280;32309;48.858;8.252;2022-08-19T04:38:58;99912.72;;;20.73;79.38
46583;BME280;32309;48.858;8.252;2022-08-19T04:41:01;99910.41;;;20.70;79.69
46583;BME280;32309;48.858;8.252;2022-08-19T04:43:21;99911.22;;;20.70;79.31
46583;BME280;32309;48.858;8.252;2022-08-19T04:45:21;99914.53;;;20.72;79.64
46583;BME280;32309;48.858;8.252;2022-08-19T04:47:22;99911.22;;;20.70;80.07
46583;BME280;32309;48.858;8.252;2022-08-19T04:49:23;99915.69;;;20.70;79.48
46583;BME280;32309;48.858;8.252;2022-08-19T04:51:23;99910.25;;;20.71;79.13
46583;BME280;32309;48.858;8.252;2022-08-19T04:53:34;99917.16;;;20.72;79.50
46583;BME280;32309;48.858;8.252;2022-08-19T04:55:38;99917.47;;;20.69;80.01
46583;BME280;32309;48.858;8.252;2022-08-19T04:57:38;99929.66;;;20.70;79.92
46583;BME280;32309;48.858;8.252;2022-08-19T04:59:40;99939.88;;;20.73;79.59
46583;BME280;32309;48.858;8.252;2022-08-19T05:01:42;99937.25;;;20.73;79.77
46583;BME280;32309;48.858;8.252;2022-08-19T05:03:42;99948.09;;;20.70;80.16
46583;BME280;32309;48.858;8.252;2022-08-19T05:05:47;99941.69;;;20.73;80.22
46583;BME280;32309;48.858;8.252;2022-08-19T05:07:48;99945.97;;;20.74;79.83
46583;BME280;32309;48.858;8.252;2022-08-19T05:09:51;99944.97;;;20.75;80.01
46583;BME280;32309;48.858;8.252;2022-08-19T05:11:52;99939.56;;;20.76;79.70
46583;BME280;32309;48.858;8.252;2022-08-19T05:13:53;99937.41;;;20.80;79.59
46583;BME280;32309;48.858;8.252;2022-08-19T05:15:57;99943.34;;;20.82;79.28
46583;BME280;32309;48.858;8.252;2022-08-19T05:17:58;99949.28;;;20.84;79.55
46583;BME280;32309;48.858;8.252;2022-08-19T05:20:17;99944.50;;;20.88;79.22
46583;BME280;32309;48.858;8.252;2022-08-19T05:22:38;99944.34;;;20.89;77.93
46583;BME280;32309;48.858;8.252;2022-08-19T05:24:38;99951.09;;;20.92;78.78
46583;BME280;32309;48.858;8.252;2022-08-19T05:26:40;99958.16;;;20.91;78.88
46583;BME280;32309;48.858;8.252;2022-08-19T05:28:46;99965.09;;;20.92;78.86
46583;BME280;32309;48.858;8.252;2022-08-19T05:30:46;99977.28;;;20.93;76.96
46583;BME280;32309;48.858;8.252;2022-08-19T05:32:48;99971.84;;;20.95;78.66
46583;BME280;32309;48.858;8.252;2022-08-19T05:34:48;99975.44;;;20.94;78.55
46583;BME280;32309;48.858;8.252;2022-08-19T05:36:49;99973.66;;;20.94;78.54
46583;BME280;32309;48.858;8.252;2022-08-19T05:38:51;99983.34;;;20.94;76.65
46583;BME280;32309;48.858;8.252;2022-08-19T05:40:53;99979.91;;;20.93;79.02
46583;BME280;32309;48.858;8.252;2022-08-19T05:42:53;99984.19;;;20.94;78.70
46583;BME280;32309;48.858;8.252;2022-08-19T05:44:53;99986.66;;;20.96;78.58
46583;BME280;32309;48.858;8.252;2022-08-19T05:46:53;99986.50;;;20.98;76.67
46583;BME280;32309;48.858;8.252;2022-08-19T05:48:54;99992.56;;;20.98;78.57
46583;BME280;32309;48.858;8.252;2022-08-19T05:50:56;99991.75;;;20.98;78.53
46583;BME280;32309;48.858;8.252;2022-08-19T05:52:58;99999.50;;;20.99;78.42
46583;BME280;32309;48.858;8.252;2022-08-19T05:54:58;99995.88;;;21.00;77.08
46583;BME280;32309;48.858;8.252;2022-08-19T05:57:00;99998.19;;;21.03;78.24
46583;BME280;32309;48.858;8.252;2022-08-19T05:59:01;100004.13;;;21.05;78.12
46583;BME280;32309;48.858;8.252;2022-08-19T06:01:01;99999.50;;;21.07;78.13
46583;BME280;32309;48.858;8.252;2022-08-19T06:03:04;100001.16;;;21.08;77.20
46583;BME280;32309;48.858;8.252;2022-08-19T06:05:05;100000.16;;;21.09;78.23
46583;BME280;32309;48.858;8.252;2022-08-19T06:07:07;100002.63;;;21.11;78.17
46583;BME280;32309;48.858;8.252;2022-08-19T06:09:07;99996.56;;;21.10;77.99
46583;BME280;32309;48.858;8.252;2022-08-19T06:11:15;100007.75;;;21.13;77.53
46583;BME280;32309;48.858;8.252;2022-08-19T06:13:18;100000.50;;;21.15;77.73
46583;BME280;32309;48.858;8.252;2022-08-19T06:15:19;99998.03;;;21.13;77.89
46583;BME280;32309;48.858;8.252;2022-08-19T06:17:20;99994.41;;;21.14;77.55
46583;BME280;32309;48.858;8.252;2022-08-19T06:19:22;100002.16;;;21.16;76.89
46583;BME280;32309;48.858;8.252;2022-08-19T06:21:25;99992.59;;;21.15;77.20
46583;BME280;32309;48.858;8.252;2022-08-19T06:23:28;100004.78;;;21.16;77.68
46583;BME280;32309;48.858;8.252;2022-08-19T06:25:29;100009.22;;;21.15;77.14
46583;BME280;32309;48.858;8.252;2022-08-19T06:27:30;100006.41;;;21.17;77.01
46583;BME280;32309;48.858;8.252;2022-08-19T06:29:31;100017.81;;;21.17;77.18
46583;BME280;32309;48.858;8.252;2022-08-19T06:31:34;100012.38;;;21.19;76.96
46583;BME280;32309;48.858;8.252;2022-08-19T06:33:35;100021.94;;;21.20;76.88
46583;BME280;32309;48.858;8.252;2022-08-19T06:35:40;100023.72;;;21.19;76.58
46583;BME280;32309;48.858;8.252;2022-08-19T06:37:41;100028.00;;;21.20;77.04
46583;BME280;32309;48.858;8.252;2022-08-19T06:39:43;100027.19;;;21.20;77.38
46583;BME280;32309;48.858;8.252;2022-08-19T06:41:45;100027.84;;;21.22;77.40
46583;BME280;32309;48.858;8.252;2022-08-19T06:43:47;100019.13;;;21.21;77.16
46583;BME280;32309;48.858;8.252;2022-08-19T06:45:48;100027.84;;;21.22;76.89
46583;BME280;32309;48.858;8.252;2022-08-19T06:47:52;100023.41;;;21.22;77.29
46583;BME280;32309;48.858;8.252;2022-08-19T06:49:56;100024.06;;;21.24;77.18
46583;BME280;32309;48.858;8.252;2022-08-19T06:52:02;100019.47;;;21.26;77.18
46583;BME280;32309;48.858;8.252;2022-08-19T06:54:06;100027.19;;;21.28;77.11
46583;BME280;32309;48.858;8.252;2022-08-19T06:56:07;100025.22;;;21.30;76.85
46583;BME280;32309;48.858;8.252;2022-08-19T06:58:07;100028.69;;;21.31;76.42
46583;BME280;32309;48.858;8.252;2022-08-19T07:00:09;100033.78;;;21.32;75.73
46583;BME280;32309;48.858;8.252;2022-08-19T07:02:12;100027.69;;;21.32;76.25
46583;BME280;32309;48.858;8.252;2022-08-19T07:04:14;100039.91;;;21.33;76.19
46583;BME280;32309;48.858;8.252;2022-08-19T07:06:17;100034.47;;;21.34;76.06
46583;BME280;32309;48.858;8.252;2022-08-19T07:08:19;100028.50;;;21.40;75.53
46583;BME280;32309;48.858;8.252;2022-08-19T07:10:19;100030.81;;;21.43;75.77
46583;BME280;32309;48.858;8.252;2022-08-19T07:12:20;100027.69;;;21.48;75.67
46583;BME280;32309;48.858;8.252;2022-08-19T07:14:22;100024.56;;;21.53;75.28
46583;BME280;32309;48.858;8.252;2022-08-19T07:16:25;100027.06;;;21.54;74.38
46583;BME280;32309;48.858;8.252;2022-08-19T07:18:26;100027.88;;;21.55;73.99
46583;BME280;32309;48.858;8.252;2022-08-19T07:20:26;100028.03;;;21.61;73.34
46583;BME280;32309;48.858;8.252;2022-08-19T07:22:26;100022.63;;;21.63;72.92
46583;BME280;32309;48.858;8.252;2022-08-19T07:24:27;100023.41;;;21.72;72.97
46583;BME280;32309;48.858;8.252;2022-08-19T07:26:28;100032.63;;;21.76;72.80
46583;BME280;32309;48.858;8.252;2022-08-19T07:28:32;100028.53;;;21.82;72.27
46583;BME280;32309;48.858;8.252;2022-08-19T07:30:32;100023.72;;;21.85;71.64
46583;BME280;32309;48.858;8.252;2022-08-19T07:32:32;100025.84;;;21.90;71.60
46583;BME280;32309;48.858;8.252;2022-08-19T07:34:33;100026.84;;;21.89;71.18
46583;BME280;32309;48.858;8.252;2022-08-19T07:36:37;100028.81;;;21.95;71.15
46583;BME280;32309;48.858;8.252;2022-08-19T07:38:41;100022.38;;;21.98;71.08
46583;BME280;32309;48.858;8.252;2022-08-19T07:40:41;100027.50;;;21.99;70.81
46583;BME280;32309;48.858;8.252;2022-08-19T07:42:43;100032.09;;;21.97;70.37
46583;BME280;32309;48.858;8.252;2022-08-19T07:44:43;100028.28;;;22.00;70.06
46583;BME280;32309;48.858;8.252;2022-08-19T07:46:45;100021.84;;;22.02;71.00
46583;BME280;32309;48.858;8.252;2022-08-19T07:48:50;100020.53;;;22.06;69.70
46583;BME280;32309;48.858;8.252;2022-08-19T07:50:52;100018.56;;;22.08;68.93
46583;BME280;32309;48.858;8.252;2022-08-19T07:52:54;100019.84;;;22.13;69.04
46583;BME280;32309;48.858;8.252;2022-08-19T07:54:54;100025.44;;;22.18;68.99
46583;BME280;32309;48.858;8.252;2022-08-19T07:56:55;100017.50;;;22.26;70.08
46583;BME280;32309;48.858;8.252;2022-08-19T07:58:56;100017.50;;;22.26;68.80
46583;BME280;32309;48.858;8.252;2022-08-19T08:00:57;100025.91;;;22.30;68.41
46583;BME280;32309;48.858;8.252;2022-08-19T08:03:00;100023.94;;;22.32;68.33
46583;BME280;32309;48.858;8.252;2022-08-19T08:05:01;100027.72;;;22.37;68.57
46583;BME280;32309;48.858;8.252;2022-08-19T08:07:20;100033.66;;;22.39;67.93
46583;BME280;32309;48.858;8.252;2022-08-19T08:09:42;100025.56;;;22.41;67.88
46583;BME280;32309;48.858;8.252;2022-08-19T08:11:45;100023.56;;;22.43;69.05
46583;BME280;32309;48.858;8.252;2022-08-19T08:13:49;100028.84;;;22.43;66.85
46583;BME280;32309;48.858;8.252;2022-08-19T08:15:50;100023.38;;;22.44;66.67
46583;BME280;32309;48.858;8.252;2022-08-19T08:17:50;100025.84;;;22.46;66.88
46583;BME280;32309;48.858;8.252;2022-08-19T08:19:51;100021.91;;;22.50;68.59
46583;BME280;32309;48.858;8.252;2022-08-19T08:21:52;100031.13;;;22.54;66.37
46583;BME280;32309;48.858;8.252;2022-08-19T08:23:54;100022.84;;;22.57;66.04
46583;BME280;32309;48.858;8.252;2022-08-19T08:25:56;100022.34;;;22.62;64.80
46583;BME280;32309;48.858;8.252;2022-08-19T08:27:57;100023.09;;;22.71;66.74
46583;BME280;32309;48.858;8.252;2022-08-19T08:30:00;100020.75;;;22.76;63.47
46583;BME280;32309;48.858;8.252;2022-08-19T08:32:00;100025.84;;;22.86;63.72
46583;BME280;32309;48.858;8.252;2022-08-19T08:34:01;100030.88;;;22.96;63.45
46583;BME280;32309;48.858;8.252;2022-08-19T08:36:04;100028.66;;;23.07;65.11
46583;BME280;32309;48.858;8.252;2022-08-19T08:38:05;100023.19;;;23.09;62.95
46583;BME280;32309;48.858;8.252;2022-08-19T08:40:28;100030.28;;;23.17;62.77
46583;BME280;32309;48.858;8.252;2022-08-19T08:42:36;100028.09;;;23.20;62.76
46583;BME280;32309;48.858;8.252;2022-08-19T08:45:10;100032.03;;;23.24;61.94
46583;BME280;32309;48.858;8.252;2022-08-19T08:47:14;100030.13;;;23.33;61.91
46583;BME280;32309;48.858;8.252;2022-08-19T08:51:36;100022.66;;;23.60;60.20
46583;BME280;32309;48.858;8.252;2022-08-19T08:53:40;100022.66;;;23.75;61.06
46583;BME280;32309;48.858;8.252;2022-08-19T08:55:44;100021.75;;;23.83;61.14
46583;BME280;32309;48.858;8.252;2022-08-19T08:59:54;100020.41;;;24.02;62.67
46583;BME280;32309;48.858;8.252;2022-08-19T09:01:56;100023.53;;;24.05;59.64
46583;BME280;32309;48.858;8.252;2022-08-19T09:03:57;100025.09;;;24.15;58.71
46583;BME280;32309;48.858;8.252;2022-08-19T09:08:07;100029.00;;;24.19;60.17
46583;BME280;32309;48.858;8.252;2022-08-19T09:15:35;100031.16;;;23.85;58.46
46583;BME280;32309;48.858;8.252;2022-08-19T09:17:37;100035.19;;;23.81;57.90
46583;BME280;32309;48.858;8.252;2022-08-19T09:19:51;100037.09;;;23.87;58.56
46583;BME280;32309;48.858;8.252;2022-08-19T09:21:58;100038.50;;;23.98;58.12
46583;BME280;32309;48.858;8.252;2022-08-19T09:24:01;100034.59;;;24.09;58.68
46583;BME280;32309;48.858;8.252;2022-08-19T09:26:17;100038.31;;;24.15;57.17
46583;BME280;32309;48.858;8.252;2022-08-19T09:28:20;100039.34;;;24.29;58.39
46583;BME280;32309;48.858;8.252;2022-08-19T09:30:24;100036.56;;;24.37;57.85
46583;BME280;32309;48.858;8.252;2022-08-19T09:32:26;100025.25;;;24.43;57.61
46583;BME280;32309;48.858;8.252;2022-08-19T09:34:27;100025.13;;;24.51;56.15
46583;BME280;32309;48.858;8.252;2022-08-19T09:36:29;100019.66;;;24.53;54.45
46583;BME280;32309;48.858;8.252;2022-08-19T09:38:32;100013.81;;;24.57;55.43
46583;BME280;32309;48.858;8.252;2022-08-19T09:40:34;100017.19;;;24.66;55.83
46583;BME280;32309;48.858;8.252;2022-08-19T09:42:35;100024.59;;;24.71;55.24
46583;BME280;32309;48.858;8.252;2022-08-19T09:44:35;100009.75;;;24.77;54.75
46583;BME280;32309;48.858;8.252;2022-08-19T09:46:36;100012.78;;;24.73;53.88
46583;BME280;32309;48.858;8.252;2022-08-19T09:48:36;100012.78;;;24.73;54.06
46583;BME280;32309;48.858;8.252;2022-08-19T09:50:36;100015.53;;;24.65;54.50
46583;BME280;32309;48.858;8.252;2022-08-19T09:52:38;100022.75;;;24.71;53.12
46583;BME280;32309;48.858;8.252;2022-08-19T09:54:39;100022.63;;;24.80;53.41
46583;BME280;32309;48.858;8.252;2022-08-19T09:56:40;100019.75;;;24.74;53.75
46583;BME280;32309;48.858;8.252;2022-08-19T09:58:40;100032.16;;;24.74;53.84
46583;BME280;32309;48.858;8.252;2022-08-19T10:00:40;100021.81;;;24.79;54.37
46583;BME280;32309;48.858;8.252;2022-08-19T10:02:40;100024.28;;;24.81;53.56
46583;BME280;32309;48.858;8.252;2022-08-19T10:04:41;100028.09;;;24.93;54.48
46583;BME280;32309;48.858;8.252;2022-08-19T10:07:00;100019.63;;;25.04;54.03
46583;BME280;32309;48.858;8.252;2022-08-19T10:09:01;100019.06;;;25.09;53.93
46583;BME280;32309;48.858;8.252;2022-08-19T10:11:04;100023.41;;;25.17;52.77
46583;BME280;32309;48.858;8.252;2022-08-19T10:13:05;100030.41;;;25.24;53.90
46583;BME280;32309;48.858;8.252;2022-08-19T10:15:06;100033.44;;;25.21;53.36
46583;BME280;32309;48.858;8.252;2022-08-19T10:17:07;100022.78;;;25.15;51.57
46583;BME280;32309;48.858;8.252;2022-08-19T10:19:08;100025.44;;;25.15;51.31
46583;BME280;32309;48.858;8.252;2022-08-19T10:21:16;100028.31;;;25.20;52.40
46583;BME280;32309;48.858;8.252;2022-08-19T10:23:20;100023.41;;;25.17;52.07
46583;BME280;32309;48.858;8.252;2022-08-19T10:25:20;100029.06;;;25.14;50.42
46583;BME280;32309;48.858;8.252;2022-08-19T10:27:20;100022.97;;;25.13;51.92
46583;BME280;32309;48.858;8.252;2022-08-19T10:29:21;100025.28;;;25.23;51.67
46583;BME280;32309;48.858;8.252;2022-08-19T10:31:22;100021.97;;;25.36;51.55
46583;BME280;32309;48.858;8.252;2022-08-19T10:33:25;100016.19;;;25.54;49.97
46583;BME280;32309;48.858;8.252;2022-08-19T10:35:25;100013.00;;;25.65;49.41
46583;BME280;32309;48.858;8.252;2022-08-19T10:37:29;100014.28;;;25.76;49.30
46583;BME280;32309;48.858;8.252;2022-08-19T10:39:31;100015.59;;;25.87;50.55
46583;BME280;32309;48.858;8.252;2022-08-19T10:41:35;100006.47;;;25.96;49.94
46583;BME280;32309;48.858;8.252;2022-08-19T10:43:38;100010.25;;;26.15;49.13
46583;BME280;32309;48.858;8.252;2022-08-19T10:45:39;100011.53;;;26.26;47.48
46583;BME280;32309;48.858;8.252;2022-08-19T10:47:40;100004.63;;;26.32;48.11
46583;BME280;32309;48.858;8.252;2022-08-19T10:49:40;99999.47;;;26.30;47.50
46583;BME280;32309;48.858;8.252;2022-08-19T10:51:59;99999.31;;;26.32;47.80
46583;BME280;32309;48.858;8.252;2022-08-19T10:54:18;99998.25;;;26.26;47.36
46583;BME280;32309;48.858;8.252;2022-08-19T10:56:19;99995.34;;;26.21;47.14
46583;BME280;32309;48.858;8.252;2022-08-19T10:58:38;99988.81;;;26.17;47.46
46583;BME280;32309;48.858;8.252;2022-08-19T11:00:39;100000.50;;;26.22;46.97
46583;BME280;32309;48.858;8.252;2022-08-19T11:02:40;99987.44;;;26.28;48.18
46583;BME280;32309;48.858;8.252;2022-08-19T11:04:41;99987.03;;;26.31;48.49
46583;BME280;32309;48.858;8.252;2022-08-19T11:06:42;99978.66;;;26.34;47.27
46583;BME280;32309;48.858;8.252;2022-08-19T11:08:47;99989.50;;;26.39;47.83
46583;BME280;32309;48.858;8.252;2022-08-19T11:10:47;99984.41;;;26.44;46.63
46583;BME280;32309;48.858;8.252;2022-08-19T11:12:47;99987.28;;;26.43;46.49
46583;BME280;32309;48.858;8.252;2022-08-19T11:14:48;99982.97;;;26.35;46.43
46583;BME280;32309;48.858;8.252;2022-08-19T11:16:49;99978.44;;;26.35;47.03
46583;BME280;32309;48.858;8.252;2022-08-19T11:18:53;99975.41;;;26.38;46.46
46583;BME280;32309;48.858;8.252;2022-08-19T11:21:08;99982.16;;;26.34;47.32
46583;BME280;32309;48.858;8.252;2022-08-19T11:23:20;99978.22;;;26.30;47.39
46583;BME280;32309;48.858;8.252;2022-08-19T11:25:20;99973.72;;;26.24;47.14
46583;BME280;32309;48.858;8.252;2022-08-19T11:27:21;99975.13;;;26.13;47.54
46583;BME280;32309;48.858;8.252;2022-08-19T11:29:22;99972.47;;;26.13;48.16
46583;BME280;32309;48.858;8.252;2022-08-19T11:31:26;99965.31;;;26.14;48.31
46583;BME280;32309;48.858;8.252;2022-08-19T11:33:30;99961.03;;;26.19;48.21
46583;BME280;32309;48.858;8.252;2022-08-19T11:35:31;99968.03;;;26.34;48.31
46583;BME280;32309;48.858;8.252;2022-08-19T11:37:32;99957.19;;;26.35;47.74
46583;BME280;32309;48.858;8.252;2022-08-19T11:39:37;99955.41;;;26.43;47.95
46583;BME280;32309;48.858;8.252;2022-08-19T11:41:37;99956.88;;;26.58;48.04
46583;BME280;32309;48.858;8.252;2022-08-19T11:43:38;99953.00;;;26.68;47.05
46583;BME280;32309;48.858;8.252;2022-08-19T11:45:39;99947.25;;;26.71;46.83
46583;BME280;32309;48.858;8.252;2022-08-19T11:47:40;99953.19;;;26.66;48.15
46583;BME280;32309;48.858;8.252;2022-08-19T11:49:40;99960.16;;;26.67;47.91
46583;BME280;32309;48.858;8.252;2022-08-19T11:51:42;99953.41;;;26.65;47.38
46583;BME280;32309;48.858;8.252;2022-08-19T11:53:43;99957.06;;;26.64;46.83
46583;BME280;32309;48.858;8.252;2022-08-19T11:55:43;99960.94;;;26.54;47.13
46583;BME280;32309;48.858;8.252;2022-08-19T11:57:44;99967.06;;;26.48;46.96
46583;BME280;32309;48.858;8.252;2022-08-19T11:59:50;99960.72;;;26.43;47.15
46583;BME280;32309;48.858;8.252;2022-08-19T12:01:52;99959.69;;;26.44;48.89
46583;BME280;32309;48.858;8.252;2022-08-19T12:03:53;99954.19;;;26.45;48.04
46583;BME280;32309;48.858;8.252;2022-08-19T12:05:54;99962.38;;;26.50;47.05
46583;BME280;32309;48.858;8.252;2022-08-19T12:07:54;99949.09;;;26.57;48.04
46583;BME280;32309;48.858;8.252;2022-08-19T12:09:54;99954.63;;;26.69;46.64
46583;BME280;32309;48.858;8.252;2022-08-19T12:11:55;99957.34;;;26.82;45.78
46583;BME280;32309;48.858;8.252;2022-08-19T12:13:56;99955.91;;;26.86;47.88
46583;BME280;32309;48.858;8.252;2022-08-19T12:15:57;99958.56;;;26.86;46.73
46583;BME280;32309;48.858;8.252;2022-08-19T12:17:58;99965.09;;;26.77;46.68
46583;BME280;32309;48.858;8.252;2022-08-19T12:19:58;99958.75;;;26.71;46.66
46583;BME280;32309;48.858;8.252;2022-08-19T12:21:59;99964.03;;;26.65;46.58
46583;BME280;32309;48.858;8.252;2022-08-19T12:24:03;99964.03;;;26.58;47.68
46583;BME280;32309;48.858;8.252;2022-08-19T12:26:05;99961.16;;;26.53;46.76
46583;BME280;32309;48.858;8.252;2022-08-19T12:28:05;99966.44;;;26.46;46.97
46583;BME280;32309;48.858;8.252;2022-08-19T12:30:06;99975.00;;;26.41;47.35
46583;BME280;32309;48.858;8.252;2022-08-19T12:32:09;99966.59;;;26.31;47.29
46583;BME280;32309;48.858;8.252;2022-08-19T12:34:10;99956.97;;;26.30;47.69
46583;BME280;32309;48.858;8.252;2022-08-19T12:36:12;99967.19;;;26.27;47.28
46583;BME280;32309;48.858;8.252;2022-08-19T12:38:13;99958.22;;;26.28;47.78
46583;BME280;32309;48.858;8.252;2022-08-19T12:40:15;99957.19;;;26.29;48.40